sensor_id;sensor_type;location;lat;lon;timestamp;P1;durP1;ratioP1;P2;durP2;ratioP2
72611;SDS011;60655;52.182;4.474;2023-09-19T00:01:55;10.32;;;1.10;;
72611;SDS011;60655;52.182;4.474;2023-09-19T00:03:57;6.82;;;1.20;;
72611;SDS011;60655;52.182;4.474;2023-09-19T00:05:58;6.40;;;1.15;;
72611;SDS011;60655;52.182;4.474;2023-09-19T00:08:00;14.55;;;1.50;;
72611;SDS011;60655;52.182;4.474;2023-09-19T00:10:05;7.28;;;1.23;;
72611;SDS011;60655;52.182;4.474;2023-09-19T00:12:06;7.97;;;1.27;;
72611;SDS011;60655;52.182;4.474;2023-09-19T00:14:09;10.07;;;1.38;;
72611;SDS011;60655;52.182;4.474;2023-09-19T00:16:14;8.77;;;1.25;;
72611;SDS011;60655;52.182;4.474;2023-09-19T00:18:16;8.85;;;0.90;;
72611;SDS011;60655;52.182;4.474;2023-09-19T00:20:19;14.57;;;1.40;;
72611;SDS011;60655;52.182;4.474;2023-09-19T00:22:22;7.57;;;0.95;;
72611;SDS011;60655;52.182;4.474;2023-09-19T00:24:23;8.30;;;1.23;;
72611;SDS011;60655;52.182;4.474;2023-09-19T00:26:24;6.63;;;1.00;;
72611;SDS011;60655;52.182;4.474;2023-09-19T00:28:25;11.57;;;1.23;;
72611;SDS011;60655;52.182;4.474;2023-09-19T00:30:26;9.25;;;1.23;;
72611;SDS011;60655;52.182;4.474;2023-09-19T00:32:27;8.50;;;1.50;;
72611;SDS011;60655;52.182;4.474;2023-09-19T00:34:32;8.95;;;1.20;;
72611;SDS011;60655;52.182;4.474;2023-09-19T00:36:35;5.90;;;1.25;;
72611;SDS011;60655;52.182;4.474;2023-09-19T00:38:36;11.07;;;1.33;;
72611;SDS011;60655;52.182;4.474;2023-09-19T00:40:37;7.93;;;1.20;;
72611;SDS011;60655;52.182;4.474;2023-09-19T00:42:39;5.47;;;1.10;;
72611;SDS011;60655;52.182;4.474;2023-09-19T00:44:41;12.80;;;1.70;;
72611;SDS011;60655;52.182;4.474;2023-09-19T00:46:42;8.27;;;1.27;;
72611;SDS011;60655;52.182;4.474;2023-09-19T00:48:43;8.07;;;1.10;;
72611;SDS011;60655;52.182;4.474;2023-09-19T00:50:44;9.20;;;1.00;;
72611;SDS011;60655;52.182;4.474;2023-09-19T00:52:48;10.77;;;1.30;;
72611;SDS011;60655;52.182;4.474;2023-09-19T00:54:51;10.57;;;1.38;;
72611;SDS011;60655;52.182;4.474;2023-09-19T00:56:52;11.73;;;1.55;;
72611;SDS011;60655;52.182;4.474;2023-09-19T00:58:55;10.00;;;1.52;;
72611;SDS011;60655;52.182;4.474;2023-09-19T01:00:56;7.95;;;1.30;;
72611;SDS011;60655;52.182;4.474;2023-09-19T01:02:57;8.93;;;1.42;;
72611;SDS011;60655;52.182;4.474;2023-09-19T01:04:59;7.88;;;1.23;;
72611;SDS011;60655;52.182;4.474;2023-09-19T01:07:05;12.07;;;1.63;;
72611;SDS011;60655;52.182;4.474;2023-09-19T01:09:05;14.18;;;1.90;;
72611;SDS011;60655;52.182;4.474;2023-09-19T01:11:27;10.02;;;1.50;;
72611;SDS011;60655;52.182;4.474;2023-09-19T01:13:39;10.68;;;1.48;;
72611;SDS011;60655;52.182;4.474;2023-09-19T01:15:51;14.30;;;1.58;;
72611;SDS011;60655;52.182;4.474;2023-09-19T01:24:55;8.68;;;1.20;;
72611;SDS011;60655;52.182;4.474;2023-09-19T01:27:24;8.98;;;1.23;;
72611;SDS011;60655;52.182;4.474;2023-09-19T01:31:49;9.85;;;1.40;;
72611;SDS011;60655;52.182;4.474;2023-09-19T01:33:55;17.42;;;1.40;;
72611;SDS011;60655;52.182;4.474;2023-09-19T01:35:58;10.15;;;1.73;;
72611;SDS011;60655;52.182;4.474;2023-09-19T01:37:59;13.55;;;1.63;;
72611;SDS011;60655;52.182;4.474;2023-09-19T01:40:00;7.47;;;1.10;;
72611;SDS011;60655;52.182;4.474;2023-09-19T01:44:47;7.68;;;1.20;;
72611;SDS011;60655;52.182;4.474;2023-09-19T01:46:55;11.43;;;1.48;;
72611;SDS011;60655;52.182;4.474;2023-09-19T01:49:15;13.15;;;1.63;;
72611;SDS011;60655;52.182;4.474;2023-09-19T01:51:32;12.32;;;1.58;;
72611;SDS011;60655;52.182;4.474;2023-09-19T01:54:30;11.05;;;1.35;;
72611;SDS011;60655;52.182;4.474;2023-09-19T01:58:24;10.93;;;1.52;;
72611;SDS011;60655;52.182;4.474;2023-09-19T02:00:34;14.57;;;1.70;;
72611;SDS011;60655;52.182;4.474;2023-09-19T02:02:38;11.02;;;2.08;;
72611;SDS011;60655;52.182;4.474;2023-09-19T02:04:42;13.15;;;1.70;;
72611;SDS011;60655;52.182;4.474;2023-09-19T02:06:44;8.23;;;1.40;;
72611;SDS011;60655;52.182;4.474;2023-09-19T02:08:48;12.32;;;1.40;;
72611;SDS011;60655;52.182;4.474;2023-09-19T02:10:49;9.25;;;1.50;;
72611;SDS011;60655;52.182;4.474;2023-09-19T02:12:50;9.90;;;1.60;;
72611;SDS011;60655;52.182;4.474;2023-09-19T02:14:51;9.30;;;1.40;;
72611;SDS011;60655;52.182;4.474;2023-09-19T02:16:52;11.48;;;1.42;;
72611;SDS011;60655;52.182;4.474;2023-09-19T02:18:54;9.18;;;1.40;;
72611;SDS011;60655;52.182;4.474;2023-09-19T02:20:55;10.80;;;1.30;;
72611;SDS011;60655;52.182;4.474;2023-09-19T02:22:56;11.02;;;1.30;;
72611;SDS011;60655;52.182;4.474;2023-09-19T02:24:57;8.45;;;1.52;;
72611;SDS011;60655;52.182;4.474;2023-09-19T02:27:01;5.75;;;1.00;;
72611;SDS011;60655;52.182;4.474;2023-09-19T02:29:04;10.73;;;1.42;;
72611;SDS011;60655;52.182;4.474;2023-09-19T02:31:05;11.82;;;1.40;;
72611;SDS011;60655;52.182;4.474;2023-09-19T02:33:06;11.38;;;1.58;;
72611;SDS011;60655;52.182;4.474;2023-09-19T02:35:08;13.70;;;1.70;;
72611;SDS011;60655;52.182;4.474;2023-09-19T02:37:11;8.20;;;1.20;;
72611;SDS011;60655;52.182;4.474;2023-09-19T02:39:13;5.72;;;1.15;;
72611;SDS011;60655;52.182;4.474;2023-09-19T02:41:14;8.02;;;1.17;;
72611;SDS011;60655;52.182;4.474;2023-09-19T02:43:15;7.90;;;1.33;;
72611;SDS011;60655;52.182;4.474;2023-09-19T02:45:17;10.73;;;1.20;;
72611;SDS011;60655;52.182;4.474;2023-09-19T02:47:19;4.75;;;0.85;;
72611;SDS011;60655;52.182;4.474;2023-09-19T02:49:20;6.70;;;1.10;;
72611;SDS011;60655;52.182;4.474;2023-09-19T02:51:21;6.10;;;1.10;;
72611;SDS011;60655;52.182;4.474;2023-09-19T02:53:22;11.52;;;1.20;;
72611;SDS011;60655;52.182;4.474;2023-09-19T02:55:24;9.32;;;1.20;;
72611;SDS011;60655;52.182;4.474;2023-09-19T02:57:25;7.32;;;1.10;;
72611;SDS011;60655;52.182;4.474;2023-09-19T02:59:26;8.52;;;1.08;;
72611;SDS011;60655;52.182;4.474;2023-09-19T03:01:29;8.20;;;1.30;;
72611;SDS011;60655;52.182;4.474;2023-09-19T03:03:30;9.90;;;1.45;;
72611;SDS011;60655;52.182;4.474;2023-09-19T03:05:31;9.07;;;1.23;;
72611;SDS011;60655;52.182;4.474;2023-09-19T03:07:33;6.72;;;1.35;;
72611;SDS011;60655;52.182;4.474;2023-09-19T03:09:34;9.90;;;1.73;;
72611;SDS011;60655;52.182;4.474;2023-09-19T03:11:35;13.52;;;1.70;;
72611;SDS011;60655;52.182;4.474;2023-09-19T03:13:36;7.05;;;1.38;;
72611;SDS011;60655;52.182;4.474;2023-09-19T03:15:41;6.03;;;1.13;;
72611;SDS011;60655;52.182;4.474;2023-09-19T03:17:45;11.23;;;1.23;;
72611;SDS011;60655;52.182;4.474;2023-09-19T03:19:47;9.50;;;1.27;;
72611;SDS011;60655;52.182;4.474;2023-09-19T03:21:49;9.10;;;1.48;;
72611;SDS011;60655;52.182;4.474;2023-09-19T03:23:51;11.50;;;1.20;;
72611;SDS011;60655;52.182;4.474;2023-09-19T03:25:52;10.05;;;1.35;;
72611;SDS011;60655;52.182;4.474;2023-09-19T03:27:53;8.50;;;0.90;;
72611;SDS011;60655;52.182;4.474;2023-09-19T03:29:58;10.85;;;1.10;;
72611;SDS011;60655;52.182;4.474;2023-09-19T03:31:59;9.68;;;1.23;;
72611;SDS011;60655;52.182;4.474;2023-09-19T03:34:00;13.07;;;1.50;;
72611;SDS011;60655;52.182;4.474;2023-09-19T03:36:02;9.32;;;1.10;;
72611;SDS011;60655;52.182;4.474;2023-09-19T03:38:06;9.02;;;1.42;;
72611;SDS011;60655;52.182;4.474;2023-09-19T03:40:08;9.48;;;1.30;;
72611;SDS011;60655;52.182;4.474;2023-09-19T03:42:10;5.90;;;1.10;;
72611;SDS011;60655;52.182;4.474;2023-09-19T03:44:11;9.45;;;1.10;;
72611;SDS011;60655;52.182;4.474;2023-09-19T03:46:12;9.77;;;1.08;;
72611;SDS011;60655;52.182;4.474;2023-09-19T03:48:15;9.25;;;1.48;;
72611;SDS011;60655;52.182;4.474;2023-09-19T03:50:16;9.07;;;1.33;;
72611;SDS011;60655;52.182;4.474;2023-09-19T03:52:18;6.93;;;1.00;;
72611;SDS011;60655;52.182;4.474;2023-09-19T03:54:18;7.50;;;1.13;;
72611;SDS011;60655;52.182;4.474;2023-09-19T03:56:20;10.00;;;1.23;;
72611;SDS011;60655;52.182;4.474;2023-09-19T03:58:20;11.43;;;1.33;;
72611;SDS011;60655;52.182;4.474;2023-09-19T04:00:22;8.75;;;1.25;;
72611;SDS011;60655;52.182;4.474;2023-09-19T04:02:24;7.93;;;1.30;;
72611;SDS011;60655;52.182;4.474;2023-09-19T04:04:25;9.07;;;1.20;;
72611;SDS011;60655;52.182;4.474;2023-09-19T04:06:26;7.00;;;0.90;;
72611;SDS011;60655;52.182;4.474;2023-09-19T04:08:28;6.80;;;0.95;;
72611;SDS011;60655;52.182;4.474;2023-09-19T04:10:30;4.38;;;0.98;;
72611;SDS011;60655;52.182;4.474;2023-09-19T04:12:31;8.00;;;1.45;;
72611;SDS011;60655;52.182;4.474;2023-09-19T04:14:32;6.82;;;1.20;;
72611;SDS011;60655;52.182;4.474;2023-09-19T04:16:33;7.70;;;0.80;;
72611;SDS011;60655;52.182;4.474;2023-09-19T04:18:34;9.07;;;1.20;;
72611;SDS011;60655;52.182;4.474;2023-09-19T04:20:38;9.23;;;1.27;;
72611;SDS011;60655;52.182;4.474;2023-09-19T04:22:39;8.93;;;1.20;;
72611;SDS011;60655;52.182;4.474;2023-09-19T04:24:40;6.57;;;1.27;;
72611;SDS011;60655;52.182;4.474;2023-09-19T04:26:41;9.27;;;1.63;;
72611;SDS011;60655;52.182;4.474;2023-09-19T04:28:43;10.00;;;1.35;;
72611;SDS011;60655;52.182;4.474;2023-09-19T04:30:44;9.73;;;1.30;;
72611;SDS011;60655;52.182;4.474;2023-09-19T04:32:45;9.98;;;1.58;;
72611;SDS011;60655;52.182;4.474;2023-09-19T04:34:51;10.10;;;1.48;;
72611;SDS011;60655;52.182;4.474;2023-09-19T04:36:52;10.02;;;1.30;;
72611;SDS011;60655;52.182;4.474;2023-09-19T04:38:53;16.60;;;1.35;;
72611;SDS011;60655;52.182;4.474;2023-09-19T04:40:57;11.50;;;1.40;;
72611;SDS011;60655;52.182;4.474;2023-09-19T04:42:59;8.00;;;1.00;;
72611;SDS011;60655;52.182;4.474;2023-09-19T04:45:00;12.25;;;1.73;;
72611;SDS011;60655;52.182;4.474;2023-09-19T04:47:01;9.75;;;1.50;;
72611;SDS011;60655;52.182;4.474;2023-09-19T04:49:02;6.50;;;1.10;;
72611;SDS011;60655;52.182;4.474;2023-09-19T04:51:03;8.82;;;1.40;;
72611;SDS011;60655;52.182;4.474;2023-09-19T04:53:04;5.60;;;1.33;;
72611;SDS011;60655;52.182;4.474;2023-09-19T04:55:05;7.43;;;1.27;;
72611;SDS011;60655;52.182;4.474;2023-09-19T04:57:06;12.80;;;1.67;;
72611;SDS011;60655;52.182;4.474;2023-09-19T04:59:07;11.57;;;1.52;;
72611;SDS011;60655;52.182;4.474;2023-09-19T05:01:11;13.27;;;1.55;;
72611;SDS011;60655;52.182;4.474;2023-09-19T05:03:12;9.38;;;1.30;;
72611;SDS011;60655;52.182;4.474;2023-09-19T05:05:13;10.13;;;1.45;;
72611;SDS011;60655;52.182;4.474;2023-09-19T05:07:17;7.55;;;1.50;;
72611;SDS011;60655;52.182;4.474;2023-09-19T05:09:18;5.57;;;1.10;;
72611;SDS011;60655;52.182;4.474;2023-09-19T05:11:20;9.95;;;1.42;;
72611;SDS011;60655;52.182;4.474;2023-09-19T05:13:23;9.30;;;1.30;;
72611;SDS011;60655;52.182;4.474;2023-09-19T05:15:24;11.93;;;1.40;;
72611;SDS011;60655;52.182;4.474;2023-09-19T05:17:26;11.05;;;1.48;;
72611;SDS011;60655;52.182;4.474;2023-09-19T05:19:27;12.10;;;1.95;;
72611;SDS011;60655;52.182;4.474;2023-09-19T05:21:28;8.25;;;1.30;;
72611;SDS011;60655;52.182;4.474;2023-09-19T05:23:31;10.82;;;1.55;;
72611;SDS011;60655;52.182;4.474;2023-09-19T05:25:33;8.68;;;1.13;;
72611;SDS011;60655;52.182;4.474;2023-09-19T05:27:38;6.90;;;1.25;;
72611;SDS011;60655;52.182;4.474;2023-09-19T05:29:39;6.38;;;1.30;;
72611;SDS011;60655;52.182;4.474;2023-09-19T05:31:40;11.38;;;1.25;;
72611;SDS011;60655;52.182;4.474;2023-09-19T05:33:43;13.25;;;1.40;;
72611;SDS011;60655;52.182;4.474;2023-09-19T05:35:44;8.32;;;1.23;;
72611;SDS011;60655;52.182;4.474;2023-09-19T05:37:47;9.30;;;1.48;;
72611;SDS011;60655;52.182;4.474;2023-09-19T05:39:51;12.38;;;1.30;;
72611;SDS011;60655;52.182;4.474;2023-09-19T05:41:54;9.02;;;1.63;;
72611;SDS011;60655;52.182;4.474;2023-09-19T05:43:57;9.00;;;1.48;;
72611;SDS011;60655;52.182;4.474;2023-09-19T05:46:00;11.68;;;1.33;;
72611;SDS011;60655;52.182;4.474;2023-09-19T05:48:34;14.30;;;1.60;;
72611;SDS011;60655;52.182;4.474;2023-09-19T05:50:28;16.63;;;1.55;;
72611;SDS011;60655;52.182;4.474;2023-09-19T05:52:29;14.73;;;1.90;;
72611;SDS011;60655;52.182;4.474;2023-09-19T05:54:30;10.48;;;1.50;;
72611;SDS011;60655;52.182;4.474;2023-09-19T05:56:31;11.70;;;1.48;;
72611;SDS011;60655;52.182;4.474;2023-09-19T05:58:32;10.13;;;1.50;;
72611;SDS011;60655;52.182;4.474;2023-09-19T06:00:33;9.30;;;1.33;;
72611;SDS011;60655;52.182;4.474;2023-09-19T06:02:34;11.50;;;1.40;;
72611;SDS011;60655;52.182;4.474;2023-09-19T06:04:36;10.43;;;1.70;;
72611;SDS011;60655;52.182;4.474;2023-09-19T06:06:41;10.65;;;1.40;;
72611;SDS011;60655;52.182;4.474;2023-09-19T06:08:42;11.27;;;1.50;;
72611;SDS011;60655;52.182;4.474;2023-09-19T06:10:46;11.05;;;1.35;;
72611;SDS011;60655;52.182;4.474;2023-09-19T06:12:47;12.23;;;1.60;;
72611;SDS011;60655;52.182;4.474;2023-09-19T06:14:48;14.63;;;1.75;;
72611;SDS011;60655;52.182;4.474;2023-09-19T06:16:50;14.15;;;1.75;;
72611;SDS011;60655;52.182;4.474;2023-09-19T06:18:51;10.98;;;1.55;;
72611;SDS011;60655;52.182;4.474;2023-09-19T06:20:53;10.73;;;1.70;;
72611;SDS011;60655;52.182;4.474;2023-09-19T06:22:54;14.20;;;1.63;;
72611;SDS011;60655;52.182;4.474;2023-09-19T06:24:56;14.88;;;1.90;;
72611;SDS011;60655;52.182;4.474;2023-09-19T06:26:56;8.23;;;1.85;;
72611;SDS011;60655;52.182;4.474;2023-09-19T06:28:58;10.65;;;1.80;;
72611;SDS011;60655;52.182;4.474;2023-09-19T06:31:01;22.60;;;2.55;;
72611;SDS011;60655;52.182;4.474;2023-09-19T06:33:03;11.20;;;1.60;;
72611;SDS011;60655;52.182;4.474;2023-09-19T06:35:04;13.93;;;1.88;;
72611;SDS011;60655;52.182;4.474;2023-09-19T06:37:09;15.70;;;2.00;;
72611;SDS011;60655;52.182;4.474;2023-09-19T06:39:10;7.82;;;1.50;;
72611;SDS011;60655;52.182;4.474;2023-09-19T06:41:11;11.50;;;1.85;;
72611;SDS011;60655;52.182;4.474;2023-09-19T06:43:14;8.63;;;1.75;;
72611;SDS011;60655;52.182;4.474;2023-09-19T06:45:15;12.73;;;1.42;;
72611;SDS011;60655;52.182;4.474;2023-09-19T06:47:19;13.85;;;2.05;;
72611;SDS011;60655;52.182;4.474;2023-09-19T06:49:21;9.13;;;1.80;;
72611;SDS011;60655;52.182;4.474;2023-09-19T06:51:21;11.90;;;1.70;;
72611;SDS011;60655;52.182;4.474;2023-09-19T06:53:22;10.57;;;1.40;;
72611;SDS011;60655;52.182;4.474;2023-09-19T06:55:24;15.13;;;2.05;;
72611;SDS011;60655;52.182;4.474;2023-09-19T06:57:28;11.75;;;1.67;;
72611;SDS011;60655;52.182;4.474;2023-09-19T06:59:31;14.48;;;1.98;;
72611;SDS011;60655;52.182;4.474;2023-09-19T07:01:33;9.45;;;1.48;;
72611;SDS011;60655;52.182;4.474;2023-09-19T07:03:34;11.23;;;1.58;;
72611;SDS011;60655;52.182;4.474;2023-09-19T07:05:37;15.15;;;1.73;;
72611;SDS011;60655;52.182;4.474;2023-09-19T07:07:43;9.38;;;1.60;;
72611;SDS011;60655;52.182;4.474;2023-09-19T07:09:44;14.15;;;1.70;;
72611;SDS011;60655;52.182;4.474;2023-09-19T07:11:45;13.82;;;1.90;;
72611;SDS011;60655;52.182;4.474;2023-09-19T07:13:48;12.27;;;1.52;;
72611;SDS011;60655;52.182;4.474;2023-09-19T07:15:49;11.23;;;1.60;;
72611;SDS011;60655;52.182;4.474;2023-09-19T07:17:51;14.30;;;1.77;;
72611;SDS011;60655;52.182;4.474;2023-09-19T07:19:53;12.73;;;1.77;;
72611;SDS011;60655;52.182;4.474;2023-09-19T07:21:54;10.57;;;1.42;;
72611;SDS011;60655;52.182;4.474;2023-09-19T07:23:55;14.30;;;2.03;;
72611;SDS011;60655;52.182;4.474;2023-09-19T07:25:57;12.73;;;1.70;;
72611;SDS011;60655;52.182;4.474;2023-09-19T07:27:59;14.75;;;1.95;;
72611;SDS011;60655;52.182;4.474;2023-09-19T07:30:00;11.13;;;1.42;;
72611;SDS011;60655;52.182;4.474;2023-09-19T07:32:01;12.02;;;2.15;;
72611;SDS011;60655;52.182;4.474;2023-09-19T07:34:02;13.35;;;1.80;;
72611;SDS011;60655;52.182;4.474;2023-09-19T07:36:04;11.57;;;1.90;;
72611;SDS011;60655;52.182;4.474;2023-09-19T07:38:07;11.55;;;1.90;;
72611;SDS011;60655;52.182;4.474;2023-09-19T07:40:08;15.38;;;1.90;;
72611;SDS011;60655;52.182;4.474;2023-09-19T07:42:10;14.23;;;1.90;;
72611;SDS011;60655;52.182;4.474;2023-09-19T07:44:12;9.98;;;1.60;;
72611;SDS011;60655;52.182;4.474;2023-09-19T07:46:13;17.27;;;2.13;;
72611;SDS011;60655;52.182;4.474;2023-09-19T07:48:14;11.65;;;1.77;;
72611;SDS011;60655;52.182;4.474;2023-09-19T07:50:16;13.90;;;1.92;;
72611;SDS011;60655;52.182;4.474;2023-09-19T07:52:19;13.30;;;1.98;;
72611;SDS011;60655;52.182;4.474;2023-09-19T07:54:22;11.13;;;1.77;;
72611;SDS011;60655;52.182;4.474;2023-09-19T07:56:22;16.00;;;1.90;;
72611;SDS011;60655;52.182;4.474;2023-09-19T07:58:24;12.13;;;1.95;;
72611;SDS011;60655;52.182;4.474;2023-09-19T08:00:24;11.90;;;1.80;;
72611;SDS011;60655;52.182;4.474;2023-09-19T08:02:25;14.77;;;2.08;;
72611;SDS011;60655;52.182;4.474;2023-09-19T08:04:28;10.05;;;1.70;;
72611;SDS011;60655;52.182;4.474;2023-09-19T08:06:31;13.70;;;1.90;;
72611;SDS011;60655;52.182;4.474;2023-09-19T08:08:32;21.17;;;2.33;;
72611;SDS011;60655;52.182;4.474;2023-09-19T08:10:35;16.02;;;2.10;;
72611;SDS011;60655;52.182;4.474;2023-09-19T08:12:36;8.80;;;1.70;;
72611;SDS011;60655;52.182;4.474;2023-09-19T08:14:37;11.43;;;2.13;;
72611;SDS011;60655;52.182;4.474;2023-09-19T08:16:38;10.80;;;1.88;;
72611;SDS011;60655;52.182;4.474;2023-09-19T08:18:39;15.18;;;2.20;;
72611;SDS011;60655;52.182;4.474;2023-09-19T08:20:40;14.55;;;2.25;;
72611;SDS011;60655;52.182;4.474;2023-09-19T08:22:43;10.40;;;1.70;;
72611;SDS011;60655;52.182;4.474;2023-09-19T08:24:48;12.60;;;1.75;;
72611;SDS011;60655;52.182;4.474;2023-09-19T08:26:49;16.60;;;1.80;;
72611;SDS011;60655;52.182;4.474;2023-09-19T08:28:51;7.30;;;1.77;;
72611;SDS011;60655;52.182;4.474;2023-09-19T08:30:53;11.77;;;2.08;;
72611;SDS011;60655;52.182;4.474;2023-09-19T08:32:58;9.80;;;1.80;;
72611;SDS011;60655;52.182;4.474;2023-09-19T08:34:59;15.13;;;2.13;;
72611;SDS011;60655;52.182;4.474;2023-09-19T08:37:01;10.10;;;1.70;;
72611;SDS011;60655;52.182;4.474;2023-09-19T08:39:02;12.15;;;2.08;;
72611;SDS011;60655;52.182;4.474;2023-09-19T08:41:06;13.20;;;1.90;;
72611;SDS011;60655;52.182;4.474;2023-09-19T08:43:08;14.27;;;2.08;;
72611;SDS011;60655;52.182;4.474;2023-09-19T08:45:09;10.82;;;2.08;;
72611;SDS011;60655;52.182;4.474;2023-09-19T08:47:15;9.85;;;1.70;;
72611;SDS011;60655;52.182;4.474;2023-09-19T08:53:51;13.40;;;2.28;;
72611;SDS011;60655;52.182;4.474;2023-09-19T08:56:00;11.95;;;1.73;;
72611;SDS011;60655;52.182;4.474;2023-09-19T08:58:06;12.85;;;1.77;;
72611;SDS011;60655;52.182;4.474;2023-09-19T09:00:10;13.73;;;2.10;;
72611;SDS011;60655;52.182;4.474;2023-09-19T09:02:15;12.52;;;2.20;;
72611;SDS011;60655;52.182;4.474;2023-09-19T09:04:19;10.90;;;2.20;;
72611;SDS011;60655;52.182;4.474;2023-09-19T09:06:23;15.68;;;2.13;;
72611;SDS011;60655;52.182;4.474;2023-09-19T09:08:25;13.30;;;1.90;;
72611;SDS011;60655;52.182;4.474;2023-09-19T09:10:26;15.18;;;2.33;;
72611;SDS011;60655;52.182;4.474;2023-09-19T09:12:28;14.02;;;2.10;;
72611;SDS011;60655;52.182;4.474;2023-09-19T09:14:30;9.05;;;1.60;;
72611;SDS011;60655;52.182;4.474;2023-09-19T09:16:31;14.95;;;2.00;;
72611;SDS011;60655;52.182;4.474;2023-09-19T09:18:32;14.77;;;2.28;;
72611;SDS011;60655;52.182;4.474;2023-09-19T09:20:33;9.10;;;1.80;;
72611;SDS011;60655;52.182;4.474;2023-09-19T09:22:34;15.35;;;2.30;;
72611;SDS011;60655;52.182;4.474;2023-09-19T09:24:37;10.48;;;2.15;;
72611;SDS011;60655;52.182;4.474;2023-09-19T09:26:51;12.63;;;2.17;;
72611;SDS011;60655;52.182;4.474;2023-09-19T09:28:53;18.77;;;2.28;;
72611;SDS011;60655;52.182;4.474;2023-09-19T09:30:56;19.35;;;3.15;;
72611;SDS011;60655;52.182;4.474;2023-09-19T09:33:11;9.98;;;2.00;;
72611;SDS011;60655;52.182;4.474;2023-09-19T09:35:13;13.68;;;2.17;;
72611;SDS011;60655;52.182;4.474;2023-09-19T09:37:17;11.95;;;2.30;;
72611;SDS011;60655;52.182;4.474;2023-09-19T09:39:29;13.80;;;2.03;;
72611;SDS011;60655;52.182;4.474;2023-09-19T09:41:38;12.18;;;2.78;;
72611;SDS011;60655;52.182;4.474;2023-09-19T09:43:40;13.73;;;2.22;;
72611;SDS011;60655;52.182;4.474;2023-09-19T09:45:42;15.50;;;1.95;;
72611;SDS011;60655;52.182;4.474;2023-09-19T09:47:49;13.75;;;1.98;;
72611;SDS011;60655;52.182;4.474;2023-09-19T09:49:59;12.07;;;1.77;;
72611;SDS011;60655;52.182;4.474;2023-09-19T09:52:07;11.48;;;1.67;;
72611;SDS011;60655;52.182;4.474;2023-09-19T09:54:17;8.98;;;1.40;;
72611;SDS011;60655;52.182;4.474;2023-09-19T09:56:22;14.43;;;1.80;;
72611;SDS011;60655;52.182;4.474;2023-09-19T09:58:23;13.80;;;1.98;;
72611;SDS011;60655;52.182;4.474;2023-09-19T10:00:29;10.88;;;1.70;;
72611;SDS011;60655;52.182;4.474;2023-09-19T10:02:42;10.20;;;2.10;;
72611;SDS011;60655;52.182;4.474;2023-09-19T10:04:46;12.70;;;1.65;;
72611;SDS011;60655;52.182;4.474;2023-09-19T10:07:07;11.15;;;1.75;;
72611;SDS011;60655;52.182;4.474;2023-09-19T10:09:11;11.60;;;1.70;;
72611;SDS011;60655;52.182;4.474;2023-09-19T10:11:17;8.02;;;1.50;;
72611;SDS011;60655;52.182;4.474;2023-09-19T10:13:20;17.35;;;1.67;;
72611;SDS011;60655;52.182;4.474;2023-09-19T10:15:25;10.15;;;1.40;;
72611;SDS011;60655;52.182;4.474;2023-09-19T10:17:30;7.32;;;1.33;;
72611;SDS011;60655;52.182;4.474;2023-09-19T10:21:47;8.88;;;1.60;;
72611;SDS011;60655;52.182;4.474;2023-09-19T10:23:49;10.52;;;1.50;;
72611;SDS011;60655;52.182;4.474;2023-09-19T10:25:53;8.55;;;1.70;;
72611;SDS011;60655;52.182;4.474;2023-09-19T10:27:54;9.48;;;1.60;;
72611;SDS011;60655;52.182;4.474;2023-09-19T10:29:56;8.82;;;1.45;;
72611;SDS011;60655;52.182;4.474;2023-09-19T10:32:00;19.60;;;1.90;;
72611;SDS011;60655;52.182;4.474;2023-09-19T10:34:04;11.25;;;1.50;;
72611;SDS011;60655;52.182;4.474;2023-09-19T10:36:07;7.85;;;1.48;;
72611;SDS011;60655;52.182;4.474;2023-09-19T10:38:11;12.77;;;1.40;;
72611;SDS011;60655;52.182;4.474;2023-09-19T10:40:19;10.93;;;1.50;;
72611;SDS011;60655;52.182;4.474;2023-09-19T10:42:21;8.00;;;1.35;;
72611;SDS011;60655;52.182;4.474;2023-09-19T10:44:29;10.48;;;1.30;;
72611;SDS011;60655;52.182;4.474;2023-09-19T10:46:33;7.05;;;1.65;;
72611;SDS011;60655;52.182;4.474;2023-09-19T10:48:34;11.70;;;1.80;;
72611;SDS011;60655;52.182;4.474;2023-09-19T10:51:22;11.20;;;1.55;;
72611;SDS011;60655;52.182;4.474;2023-09-19T10:53:05;10.60;;;1.50;;
72611;SDS011;60655;52.182;4.474;2023-09-19T10:55:08;11.70;;;1.73;;
72611;SDS011;60655;52.182;4.474;2023-09-19T10:57:20;10.95;;;1.63;;
72611;SDS011;60655;52.182;4.474;2023-09-19T10:59:24;7.90;;;1.23;;
72611;SDS011;60655;52.182;4.474;2023-09-19T11:01:40;9.10;;;1.70;;
72611;SDS011;60655;52.182;4.474;2023-09-19T11:03:42;7.05;;;1.23;;
72611;SDS011;60655;52.182;4.474;2023-09-19T11:08:10;10.32;;;1.30;;
72611;SDS011;60655;52.182;4.474;2023-09-19T11:10:32;10.85;;;1.65;;
72611;SDS011;60655;52.182;4.474;2023-09-19T11:12:49;11.80;;;1.90;;
72611;SDS011;60655;52.182;4.474;2023-09-19T11:14:51;9.02;;;1.77;;
72611;SDS011;60655;52.182;4.474;2023-09-19T11:19:07;8.95;;;1.50;;
72611;SDS011;60655;52.182;4.474;2023-09-19T11:26:41;9.38;;;1.20;;
72611;SDS011;60655;52.182;4.474;2023-09-19T11:28:49;9.27;;;1.58;;
72611;SDS011;60655;52.182;4.474;2023-09-19T11:31:42;6.90;;;1.30;;
72611;SDS011;60655;52.182;4.474;2023-09-19T11:33:48;8.82;;;1.40;;
72611;SDS011;60655;52.182;4.474;2023-09-19T11:36:34;7.65;;;1.63;;
72611;SDS011;60655;52.182;4.474;2023-09-19T11:40:44;5.70;;;1.10;;
72611;SDS011;60655;52.182;4.474;2023-09-19T11:42:46;12.00;;;1.60;;
72611;SDS011;60655;52.182;4.474;2023-09-19T11:44:54;6.85;;;1.65;;
72611;SDS011;60655;52.182;4.474;2023-09-19T11:46:56;9.60;;;1.77;;
72611;SDS011;60655;52.182;4.474;2023-09-19T11:49:08;12.52;;;1.40;;
72611;SDS011;60655;52.182;4.474;2023-09-19T11:51:21;9.55;;;1.75;;
72611;SDS011;60655;52.182;4.474;2023-09-19T11:53:30;9.90;;;1.40;;
72611;SDS011;60655;52.182;4.474;2023-09-19T11:55:33;8.68;;;1.10;;
72611;SDS011;60655;52.182;4.474;2023-09-19T11:57:35;5.85;;;1.40;;
72611;SDS011;60655;52.182;4.474;2023-09-19T11:59:38;5.47;;;1.38;;
72611;SDS011;60655;52.182;4.474;2023-09-19T12:01:43;7.20;;;1.30;;
72611;SDS011;60655;52.182;4.474;2023-09-19T12:03:52;7.70;;;1.38;;
72611;SDS011;60655;52.182;4.474;2023-09-19T12:05:55;7.55;;;1.80;;
72611;SDS011;60655;52.182;4.474;2023-09-19T12:07:58;8.38;;;1.60;;
72611;SDS011;60655;52.182;4.474;2023-09-19T12:10:03;8.18;;;1.70;;
72611;SDS011;60655;52.182;4.474;2023-09-19T12:12:06;7.18;;;1.33;;
72611;SDS011;60655;52.182;4.474;2023-09-19T12:14:09;7.32;;;1.55;;
72611;SDS011;60655;52.182;4.474;2023-09-19T12:16:11;5.25;;;1.38;;
72611;SDS011;60655;52.182;4.474;2023-09-19T12:18:27;6.65;;;1.67;;
72611;SDS011;60655;52.182;4.474;2023-09-19T12:20:44;8.30;;;1.60;;
72611;SDS011;60655;52.182;4.474;2023-09-19T12:22:47;8.35;;;1.88;;
72611;SDS011;60655;52.182;4.474;2023-09-19T12:24:50;9.60;;;1.55;;
72611;SDS011;60655;52.182;4.474;2023-09-19T12:26:51;7.15;;;1.55;;
72611;SDS011;60655;52.182;4.474;2023-09-19T12:28:53;9.85;;;1.90;;
72611;SDS011;60655;52.182;4.474;2023-09-19T12:30:56;9.93;;;1.60;;
72611;SDS011;60655;52.182;4.474;2023-09-19T12:32:58;7.38;;;1.88;;
72611;SDS011;60655;52.182;4.474;2023-09-19T12:34:59;6.70;;;1.80;;
72611;SDS011;60655;52.182;4.474;2023-09-19T12:39:22;13.13;;;1.88;;
72611;SDS011;60655;52.182;4.474;2023-09-19T12:41:28;9.50;;;1.65;;
72611;SDS011;60655;52.182;4.474;2023-09-19T12:43:29;7.20;;;1.95;;
72611;SDS011;60655;52.182;4.474;2023-09-19T12:45:34;9.88;;;2.00;;
72611;SDS011;60655;52.182;4.474;2023-09-19T12:47:35;9.43;;;1.67;;
72611;SDS011;60655;52.182;4.474;2023-09-19T12:50:04;9.90;;;1.70;;
72611;SDS011;60655;52.182;4.474;2023-09-19T12:52:13;12.45;;;2.47;;
72611;SDS011;60655;52.182;4.474;2023-09-19T12:54:14;8.90;;;1.55;;
72611;SDS011;60655;52.182;4.474;2023-09-19T12:56:18;10.02;;;1.80;;